world map with ISE marked

ISE - Airport

This information may not be accurate or current and is not valid for navigation or flight planning. No warranty of fitness for any purpose is made or implied.

flag of Turkey

Donate via PayPal

Additional information is available on the NEW Great Circle Mapper

Location
City:  Isparta, Isparta, Turkey
Name:Süleyman Demirel
ICAO / IATA:LTFC / ISE

Details
Type:Airport (Aerodrome, Airfield)
Use:Public/Civil
Latitude:37°51'20"N (37.855417)
Longitude:30°22'06"E (30.368397)
Datum:WGS 1984
Elevation:2835 ft (864 m)
Runways:1
Longest:9843 × 148 ft (3000 × 45 m)

Time
Timezone:UTC+3 (DST+5)
Local Time:

Weather
METAR:LTFC  041350Z 21003KT 170V250 9999 FEW035 17/M01 Q1020 RMK RWY23 24004KT 180V270
TAF:LTFC  (expired)

Related Locations
Nearby:
Farthest:RVV: 11461 mi / 18444 km
Raivavae, Tubuai Islands, Austral Islands, PF

Find:

   beyond  
but within

Other Information
Maps:
Sources:

  


 


Great Circle Mapper   Great Circle Mapper
Great Circle Mapper FAQ   Great Circle Mapper FAQ
  Karl's Home Page
KLS˛   KLS˛ Home
   GC on Facebook
Airlines of the World   Airlines of the World
Donate via PayPal


Copyright © 2004-2020, Karl L. Swartz. All rights reserved.
All trademarks mentioned herein belong to their respective owners.

Please see credits for attribution and copyright information.

Karl Swartz <karl@kls2.com>
  Powered by FreeBSD
Valid HTML 4.01!
Labeled with ICRA
hCard Microformat
Geo Microformat